CDT,Max TemperatureF,Mean TemperatureF,Min TemperatureF,Max Dew PointF,MeanDew PointF,Min DewpointF,Max Humidity, Mean Humidity, Min Humidity, Max Sea Level PressureIn, Mean Sea Level PressureIn, Min Sea Level PressureIn, Max VisibilityMiles, Mean VisibilityMiles, Min VisibilityMiles, Max Wind SpeedMPH, Mean Wind SpeedMPH, Max Gust SpeedMPH,PrecipitationIn, CloudCover, Events, WindDirDegrees
2012-10-1,72,64,57,61,58,55,97,87,57,29.78,29.66,29.61,10,6,2,14,8,24,0.39,7,Rain,344
2012-10-2,75,65,55,59,54,50,93,73,43,29.96,29.88,29.77,10,10,6,7,2,,0.00,0,,276
2012-10-3,79,66,54,61,56,52,93,74,42,30.11,30.04,29.97,10,10,7,9,2,,0.01,0,,182
2012-10-4,82,68,55,65,58,54,100,82,42,30.23,30.17,30.11,10,6,0,7,1,,0.00,0,Fog-Rain,170
2012-10-5,84,72,57,66,62,53,94,76,53,30.14,30.07,29.97,10,10,8,13,4,23,0.06,3,Rain,199
2012-10-6,55,50,46,51,43,39,90,79,61,30.22,30.16,30.10,10,10,9,10,6,20,0.04,8,Rain,24
2012-10-7,62,54,46,46,42,40,90,70,46,30.28,30.22,30.17,10,9,3,13,5,21,0.32,5,Rain,26
2012-10-8,62,53,46,47,44,42,93,78,51,30.27,30.22,30.16,10,9,2,9,2,,0.40,6,Rain,34
2012-10-9,70,56,41,57,49,40,96,75,51,30.16,30.08,29.96,10,10,10,9,2,,0.00,2,,163
2012-10-10,72,62,55,58,54,47,96,72,45,30.24,30.18,30.05,10,10,7,15,4,22,0.00,4,,48
2012-10-11,82,68,55,70,58,46,93,75,58,30.22,30.18,30.14,10,10,7,7,5,,0.00,4,,111
2012-10-12,82,72,62,69,65,61,96,82,58,30.25,30.19,30.16,10,7,2,7,3,,0.01,2,Rain,194
2012-10-13,82,71,60,68,64,60,100,84,54,30.19,30.12,29.96,10,5,0,14,2,20,0.00,2,Fog-Rain,178
2012-10-14,81,72,63,70,65,58,94,84,66,30.05,29.98,29.92,10,8,2,17,10,28,0.14,5,Rain-Thunderstorm,223
2012-10-15,78,65,53,58,53,49,97,70,37,30.09,30.03,29.97,10,10,10,5,1,,0.07,0,,38
2012-10-16,71,62,53,62,56,50,93,79,61,29.99,29.90,29.81,10,10,10,6,2,,0.03,0,,177
2012-10-17,80,69,59,70,63,55,94,81,60,29.81,29.67,29.55,10,9,0,30,9,51,0.96,4,Fog-Rain-Thunderstorm,208
2012-10-18,73,62,51,58,45,33,97,59,23,29.91,29.85,29.72,10,10,7,14,5,21,0.00,0,Rain,262
2012-10-19,71,60,48,47,40,36,90,54,30,29.90,29.85,29.82,10,10,10,18,8,30,0.00,2,,258
2012-10-20,78,60,42,54,46,40,93,63,29,29.97,29.92,29.88,10,10,10,8,2,,0.00,0,,179
2012-10-21,82,72,61,64,56,48,68,60,50,30.03,29.99,29.93,10,10,10,15,7,22,0.00,2,Rain,182
2012-10-22,82,70,57,61,55,52,93,66,35,30.12,30.05,30.02,10,10,10,10,5,16,0.00,0,,176
2012-10-23,80,70,59,64,60,54,90,76,48,30.08,30.03,29.99,10,10,6,9,5,,0.00,0,,174
2012-10-24,82,71,61,67,63,58,90,78,54,30.09,30.02,29.96,10,10,5,13,4,16,0.00,1,Rain,172
2012-10-25,81,70,60,68,63,57,94,80,62,29.99,29.94,29.91,10,9,2,10,3,,0.00,1,,179
2012-10-26,66,58,46,63,47,42,94,88,78,30.23,30.13,29.96,10,8,2,12,8,23,0.19,8,Rain-Thunderstorm,12
2012-10-27,57,49,41,42,35,32,83,64,39,30.22,30.17,30.11,10,10,10,10,5,20,0.00,0,,344
2012-10-28,59,48,37,38,35,32,89,66,37,30.22,30.18,30.15,10,10,10,10,4,17,0.00,0,,342
2012-10-29,59,47,37,37,33,27,89,63,32,30.31,30.22,30.13,10,10,7,13,4,20,0.00,0,,358
2012-10-30,68,52,37,45,38,33,86,61,33,30.12,30.04,29.96,10,10,10,10,5,,0.00,0,,267
2012-10-31,70,58,46,48,44,41,90,66,36,30.01,29.98,29.95,10,10,10,7,4,,0.10,1,,292